sensor_id;sensor_type;location;lat;lon;timestamp;pressure;altitude;pressure_sealevel;temperature;humidity
73457;BME280;61691;53.072;6.582;2023-11-19T00:00:08;100576.47;;;11.07;97.07
73457;BME280;61691;53.072;6.582;2023-11-19T00:02:40;100592.22;;;11.18;96.91
73457;BME280;61691;53.072;6.582;2023-11-19T00:05:08;100589.13;;;11.23;97.21
73457;BME280;61691;53.072;6.582;2023-11-19T00:07:36;100584.94;;;11.20;97.25
73457;BME280;61691;53.072;6.582;2023-11-19T00:10:03;100580.88;;;11.26;97.32
73457;BME280;61691;53.072;6.582;2023-11-19T00:12:33;100569.97;;;11.29;97.34
73457;BME280;61691;53.072;6.582;2023-11-19T00:15:00;100581.28;;;11.31;97.29
73457;BME280;61691;53.072;6.582;2023-11-19T00:17:27;100560.19;;;11.30;97.39
73457;BME280;61691;53.072;6.582;2023-11-19T00:19:54;100571.28;;;11.43;97.18
73457;BME280;61691;53.072;6.582;2023-11-19T00:22:21;100545.47;;;11.35;97.69
73457;BME280;61691;53.072;6.582;2023-11-19T00:24:48;100543.78;;;11.44;97.26
73457;BME280;61691;53.072;6.582;2023-11-19T00:27:15;100535.97;;;11.42;97.54
73457;BME280;61691;53.072;6.582;2023-11-19T00:29:42;100516.16;;;11.37;97.76
73457;BME280;61691;53.072;6.582;2023-11-19T00:32:09;100537.59;;;11.53;97.84
73457;BME280;61691;53.072;6.582;2023-11-19T00:34:35;100525.00;;;11.55;97.95
73457;BME280;61691;53.072;6.582;2023-11-19T00:37:02;100542.38;;;11.67;97.78
73457;BME280;61691;53.072;6.582;2023-11-19T00:39:30;100543.09;;;11.69;97.66
73457;BME280;61691;53.072;6.582;2023-11-19T00:41:57;100507.13;;;11.57;97.88
73457;BME280;61691;53.072;6.582;2023-11-19T00:44:23;100523.38;;;11.72;98.04
73457;BME280;61691;53.072;6.582;2023-11-19T00:46:50;100515.81;;;11.77;97.81
73457;BME280;61691;53.072;6.582;2023-11-19T00:49:17;100517.03;;;11.82;98.18
73457;BME280;61691;53.072;6.582;2023-11-19T00:51:44;100516.75;;;11.85;98.30
73457;BME280;61691;53.072;6.582;2023-11-19T00:54:12;100529.78;;;11.96;97.93
73457;BME280;61691;53.072;6.582;2023-11-19T00:56:38;100511.06;;;11.98;98.17
73457;BME280;61691;53.072;6.582;2023-11-19T00:59:06;100497.91;;;11.96;97.96
73457;BME280;61691;53.072;6.582;2023-11-19T01:01:34;100501.13;;;12.00;98.24
73457;BME280;61691;53.072;6.582;2023-11-19T01:04:01;100504.53;;;12.10;98.26
73457;BME280;61691;53.072;6.582;2023-11-19T01:08:55;100486.38;;;12.06;98.30
73457;BME280;61691;53.072;6.582;2023-11-19T01:11:23;100476.44;;;12.08;98.34
73457;BME280;61691;53.072;6.582;2023-11-19T01:13:51;100487.84;;;12.18;98.34
73457;BME280;61691;53.072;6.582;2023-11-19T01:16:18;100509.75;;;12.20;98.33
73457;BME280;61691;53.072;6.582;2023-11-19T01:18:48;100499.44;;;12.17;98.31
73457;BME280;61691;53.072;6.582;2023-11-19T01:21:15;100508.06;;;12.19;98.20
73457;BME280;61691;53.072;6.582;2023-11-19T01:23:42;100503.78;;;12.18;98.07
73457;BME280;61691;53.072;6.582;2023-11-19T01:26:12;100510.06;;;12.17;98.15
73457;BME280;61691;53.072;6.582;2023-11-19T01:28:40;100524.56;;;12.22;98.49
73457;BME280;61691;53.072;6.582;2023-11-19T01:31:15;100534.06;;;12.25;98.48
73457;BME280;61691;53.072;6.582;2023-11-19T01:33:41;100496.09;;;12.15;98.24
73457;BME280;61691;53.072;6.582;2023-11-19T01:36:08;100493.72;;;12.12;98.53
73457;BME280;61691;53.072;6.582;2023-11-19T01:38:36;100506.13;;;12.21;98.61
73457;BME280;61691;53.072;6.582;2023-11-19T01:41:02;100504.50;;;12.28;98.28
73457;BME280;61691;53.072;6.582;2023-11-19T01:43:34;100499.56;;;12.33;98.28
73457;BME280;61691;53.072;6.582;2023-11-19T01:46:02;100502.19;;;12.25;98.18
73457;BME280;61691;53.072;6.582;2023-11-19T01:48:33;100507.72;;;12.31;97.91
73457;BME280;61691;53.072;6.582;2023-11-19T01:51:01;100491.97;;;12.20;98.45
73457;BME280;61691;53.072;6.582;2023-11-19T01:53:30;100505.50;;;12.27;98.04
73457;BME280;61691;53.072;6.582;2023-11-19T01:55:57;100490.72;;;12.24;98.15
73457;BME280;61691;53.072;6.582;2023-11-19T01:58:24;100489.03;;;12.23;98.31
73457;BME280;61691;53.072;6.582;2023-11-19T02:00:51;100466.88;;;12.15;98.32
73457;BME280;61691;53.072;6.582;2023-11-19T02:03:19;100472.88;;;12.17;98.43
73457;BME280;61691;53.072;6.582;2023-11-19T02:05:48;100472.88;;;12.17;98.54
73457;BME280;61691;53.072;6.582;2023-11-19T02:08:15;100457.16;;;12.06;98.20
73457;BME280;61691;53.072;6.582;2023-11-19T02:10:42;100469.81;;;12.12;98.02
73457;BME280;61691;53.072;6.582;2023-11-19T02:13:10;100466.50;;;12.10;98.07
73457;BME280;61691;53.072;6.582;2023-11-19T02:15:38;100459.66;;;12.07;98.15
73457;BME280;61691;53.072;6.582;2023-11-19T02:18:24;100464.84;;;12.09;98.21
73457;BME280;61691;53.072;6.582;2023-11-19T02:20:55;100483.56;;;12.07;98.33
73457;BME280;61691;53.072;6.582;2023-11-19T02:23:23;100478.41;;;12.06;98.28
73457;BME280;61691;53.072;6.582;2023-11-19T02:28:52;100476.38;;;11.99;98.11
73457;BME280;61691;53.072;6.582;2023-11-19T02:31:19;100486.69;;;12.02;98.35
73457;BME280;61691;53.072;6.582;2023-11-19T02:33:47;100479.72;;;12.01;98.26
73457;BME280;61691;53.072;6.582;2023-11-19T02:36:13;100466.03;;;11.96;98.57
73457;BME280;61691;53.072;6.582;2023-11-19T02:38:40;100480.78;;;12.09;98.36
73457;BME280;61691;53.072;6.582;2023-11-19T02:41:07;100470.97;;;12.09;98.51
73457;BME280;61691;53.072;6.582;2023-11-19T02:43:35;100440.41;;;11.87;98.39
73457;BME280;61691;53.072;6.582;2023-11-19T02:46:05;100475.47;;;12.09;98.29
73457;BME280;61691;53.072;6.582;2023-11-19T02:48:38;100475.47;;;12.09;98.18
73457;BME280;61691;53.072;6.582;2023-11-19T02:51:05;100448.44;;;11.95;98.18
73457;BME280;61691;53.072;6.582;2023-11-19T02:53:36;100434.47;;;11.93;98.02
73457;BME280;61691;53.072;6.582;2023-11-19T02:56:07;100468.53;;;12.16;98.29
73457;BME280;61691;53.072;6.582;2023-11-19T02:59:03;100450.25;;;12.13;98.29
73457;BME280;61691;53.072;6.582;2023-11-19T03:01:36;100460.34;;;12.09;98.19
73457;BME280;61691;53.072;6.582;2023-11-19T03:04:02;100468.69;;;12.14;97.85
73457;BME280;61691;53.072;6.582;2023-11-19T03:06:30;100450.25;;;12.13;98.15
73457;BME280;61691;53.072;6.582;2023-11-19T03:08:57;100462.25;;;12.17;97.81
73457;BME280;61691;53.072;6.582;2023-11-19T03:11:24;100462.53;;;12.14;98.12
73457;BME280;61691;53.072;6.582;2023-11-19T03:13:51;100455.25;;;12.16;98.05
73457;BME280;61691;53.072;6.582;2023-11-19T03:16:18;100405.50;;;11.82;98.19
73457;BME280;61691;53.072;6.582;2023-11-19T03:18:44;100452.06;;;12.12;97.84
73457;BME280;61691;53.072;6.582;2023-11-19T03:21:11;100447.91;;;12.10;98.05
73457;BME280;61691;53.072;6.582;2023-11-19T03:23:39;100446.09;;;12.10;98.04
73457;BME280;61691;53.072;6.582;2023-11-19T03:26:07;100425.59;;;12.02;97.89
73457;BME280;61691;53.072;6.582;2023-11-19T03:28:34;100430.75;;;12.04;98.04
73457;BME280;61691;53.072;6.582;2023-11-19T03:31:04;100450.63;;;12.18;98.10
73457;BME280;61691;53.072;6.582;2023-11-19T03:33:31;100431.56;;;12.05;97.86
73457;BME280;61691;53.072;6.582;2023-11-19T03:35:57;100443.25;;;12.12;97.77
73457;BME280;61691;53.072;6.582;2023-11-19T03:38:24;100439.94;;;12.10;97.56
73457;BME280;61691;53.072;6.582;2023-11-19T03:40:51;100438.78;;;12.12;97.75
73457;BME280;61691;53.072;6.582;2023-11-19T03:43:18;100433.59;;;12.11;97.93
73457;BME280;61691;53.072;6.582;2023-11-19T03:45:48;100437.09;;;12.11;97.57
73457;BME280;61691;53.072;6.582;2023-11-19T03:48:15;100429.97;;;12.12;97.76
73457;BME280;61691;53.072;6.582;2023-11-19T03:50:45;100436.25;;;12.11;97.51
73457;BME280;61691;53.072;6.582;2023-11-19T03:53:12;100438.56;;;12.06;97.37
73457;BME280;61691;53.072;6.582;2023-11-19T03:55:38;100443.34;;;12.02;97.62
73457;BME280;61691;53.072;6.582;2023-11-19T03:58:05;100436.88;;;12.05;97.52
73457;BME280;61691;53.072;6.582;2023-11-19T04:00:32;100435.22;;;12.03;97.55
73457;BME280;61691;53.072;6.582;2023-11-19T04:02:59;100421.28;;;12.01;97.43
73457;BME280;61691;53.072;6.582;2023-11-19T04:05:26;100435.22;;;12.03;97.23
73457;BME280;61691;53.072;6.582;2023-11-19T04:07:53;100425.06;;;11.99;97.28
73457;BME280;61691;53.072;6.582;2023-11-19T04:10:19;100419.59;;;12.00;96.93
73457;BME280;61691;53.072;6.582;2023-11-19T04:12:47;100414.91;;;11.94;97.08
73457;BME280;61691;53.072;6.582;2023-11-19T04:15:14;100386.38;;;11.79;97.40
73457;BME280;61691;53.072;6.582;2023-11-19T04:17:41;100420.03;;;11.96;97.04
73457;BME280;61691;53.072;6.582;2023-11-19T04:20:08;100414.50;;;11.89;96.88
73457;BME280;61691;53.072;6.582;2023-11-19T04:22:38;100423.47;;;11.88;96.82
73457;BME280;61691;53.072;6.582;2023-11-19T04:25:05;100397.59;;;11.73;97.13
73457;BME280;61691;53.072;6.582;2023-11-19T04:27:32;100415.06;;;11.75;96.75
73457;BME280;61691;53.072;6.582;2023-11-19T04:29:59;100417.78;;;11.83;96.87
73457;BME280;61691;53.072;6.582;2023-11-19T04:32:28;100424.22;;;11.81;96.50
73457;BME280;61691;53.072;6.582;2023-11-19T04:34:54;100428.41;;;11.83;96.54
73457;BME280;61691;53.072;6.582;2023-11-19T04:37:21;100406.00;;;11.68;96.65
73457;BME280;61691;53.072;6.582;2023-11-19T04:39:48;100412.00;;;11.70;96.49
73457;BME280;61691;53.072;6.582;2023-11-19T04:42:15;100424.00;;;11.74;96.49
73457;BME280;61691;53.072;6.582;2023-11-19T04:44:43;100419.53;;;11.75;96.83
73457;BME280;61691;53.072;6.582;2023-11-19T04:47:10;100434.47;;;11.76;96.69
73457;BME280;61691;53.072;6.582;2023-11-19T04:49:41;100407.59;;;11.61;96.25
73457;BME280;61691;53.072;6.582;2023-11-19T04:52:11;100411.78;;;11.63;96.45
73457;BME280;61691;53.072;6.582;2023-11-19T04:54:42;100432.91;;;11.73;96.06
73457;BME280;61691;53.072;6.582;2023-11-19T04:57:12;100427.94;;;11.70;96.18
73457;BME280;61691;53.072;6.582;2023-11-19T04:59:39;100428.97;;;11.59;95.84
73457;BME280;61691;53.072;6.582;2023-11-19T05:02:06;100437.09;;;11.58;95.61
73457;BME280;61691;53.072;6.582;2023-11-19T05:04:32;100442.25;;;11.59;96.17
73457;BME280;61691;53.072;6.582;2023-11-19T05:06:59;100389.38;;;11.31;95.86
73457;BME280;61691;53.072;6.582;2023-11-19T05:09:26;100414.41;;;11.46;95.99
73457;BME280;61691;53.072;6.582;2023-11-19T05:11:53;100384.06;;;11.31;95.90
73457;BME280;61691;53.072;6.582;2023-11-19T05:14:20;100429.13;;;11.58;95.82
73457;BME280;61691;53.072;6.582;2023-11-19T05:16:47;100406.44;;;11.46;96.22
73457;BME280;61691;53.072;6.582;2023-11-19T05:19:15;100436.19;;;11.67;95.60
73457;BME280;61691;53.072;6.582;2023-11-19T05:21:42;100433.53;;;11.67;95.87
73457;BME280;61691;53.072;6.582;2023-11-19T05:24:10;100427.72;;;11.63;95.29
73457;BME280;61691;53.072;6.582;2023-11-19T05:26:38;100439.69;;;11.68;95.23
73457;BME280;61691;53.072;6.582;2023-11-19T05:29:05;100446.19;;;11.73;95.50
73457;BME280;61691;53.072;6.582;2023-11-19T05:31:31;100454.16;;;11.73;95.27
73457;BME280;61691;53.072;6.582;2023-11-19T05:34:02;100446.53;;;11.70;95.06
73457;BME280;61691;53.072;6.582;2023-11-19T05:36:29;100428.47;;;11.56;94.83
73457;BME280;61691;53.072;6.582;2023-11-19T05:38:55;100404.09;;;11.43;94.91
73457;BME280;61691;53.072;6.582;2023-11-19T05:41:22;100430.78;;;11.59;94.82
73457;BME280;61691;53.072;6.582;2023-11-19T05:43:49;100421.09;;;11.50;94.49
73457;BME280;61691;53.072;6.582;2023-11-19T05:46:16;100448.09;;;11.63;94.85
73457;BME280;61691;53.072;6.582;2023-11-19T05:48:46;100447.19;;;11.54;94.69
73457;BME280;61691;53.072;6.582;2023-11-19T05:51:13;100438.69;;;11.51;94.41
73457;BME280;61691;53.072;6.582;2023-11-19T05:53:42;100445.06;;;11.58;94.46
73457;BME280;61691;53.072;6.582;2023-11-19T05:56:09;100461.53;;;11.61;94.55
73457;BME280;61691;53.072;6.582;2023-11-19T05:58:36;100460.53;;;11.62;94.23
73457;BME280;61691;53.072;6.582;2023-11-19T06:01:04;100431.72;;;11.50;94.44
73457;BME280;61691;53.072;6.582;2023-11-19T06:03:31;100456.78;;;11.65;94.00
73457;BME280;61691;53.072;6.582;2023-11-19T06:05:58;100440.34;;;11.52;94.13
73457;BME280;61691;53.072;6.582;2023-11-19T06:08:25;100462.38;;;11.62;93.83
73457;BME280;61691;53.072;6.582;2023-11-19T06:10:53;100443.00;;;11.52;93.78
73457;BME280;61691;53.072;6.582;2023-11-19T06:13:20;100455.16;;;11.54;93.64
73457;BME280;61691;53.072;6.582;2023-11-19T06:15:50;100474.94;;;11.60;93.64
73457;BME280;61691;53.072;6.582;2023-11-19T06:18:18;100457.56;;;11.48;93.72
73457;BME280;61691;53.072;6.582;2023-11-19T06:20:47;100473.59;;;11.56;93.26
73457;BME280;61691;53.072;6.582;2023-11-19T06:23:14;100471.22;;;11.53;93.40
73457;BME280;61691;53.072;6.582;2023-11-19T06:25:40;100442.53;;;11.39;93.21
73457;BME280;61691;53.072;6.582;2023-11-19T06:28:07;100450.22;;;11.42;93.24
73457;BME280;61691;53.072;6.582;2023-11-19T06:30:34;100472.19;;;11.52;93.02
73457;BME280;61691;53.072;6.582;2023-11-19T06:33:02;100473.88;;;11.53;92.70
73457;BME280;61691;53.072;6.582;2023-11-19T06:35:30;100464.56;;;11.49;93.15
73457;BME280;61691;53.072;6.582;2023-11-19T06:38:03;100461.50;;;11.44;92.82
73457;BME280;61691;53.072;6.582;2023-11-19T06:40:33;100473.03;;;11.52;92.60
73457;BME280;61691;53.072;6.582;2023-11-19T06:43:01;100466.38;;;11.48;92.64
73457;BME280;61691;53.072;6.582;2023-11-19T06:45:30;100444.34;;;11.38;92.53
73457;BME280;61691;53.072;6.582;2023-11-19T06:47:57;100479.31;;;11.51;92.70
73457;BME280;61691;53.072;6.582;2023-11-19T06:50:25;100478.13;;;11.46;92.48
73457;BME280;61691;53.072;6.582;2023-11-19T06:52:52;100468.19;;;11.48;92.20
73457;BME280;61691;53.072;6.582;2023-11-19T06:55:19;100474.47;;;11.47;92.30
73457;BME280;61691;53.072;6.582;2023-11-19T06:57:45;100470.69;;;11.49;91.97
73457;BME280;61691;53.072;6.582;2023-11-19T07:00:12;100466.13;;;11.42;91.93
73457;BME280;61691;53.072;6.582;2023-11-19T07:02:40;100479.50;;;11.50;91.82
73457;BME280;61691;53.072;6.582;2023-11-19T07:05:07;100475.59;;;11.44;91.43
73457;BME280;61691;53.072;6.582;2023-11-19T07:07:35;100472.81;;;11.46;91.67
73457;BME280;61691;53.072;6.582;2023-11-19T07:10:02;100466.72;;;11.36;91.76
73457;BME280;61691;53.072;6.582;2023-11-19T07:12:30;100459.16;;;11.41;91.40
73457;BME280;61691;53.072;6.582;2023-11-19T07:14:57;100483.13;;;11.49;91.33
73457;BME280;61691;53.072;6.582;2023-11-19T07:17:24;100452.47;;;11.37;91.14
73457;BME280;61691;53.072;6.582;2023-11-19T07:19:51;100477.41;;;11.44;91.16
73457;BME280;61691;53.072;6.582;2023-11-19T07:22:18;100471.28;;;11.43;91.15
73457;BME280;61691;53.072;6.582;2023-11-19T07:24:45;100480.78;;;11.46;91.54
73457;BME280;61691;53.072;6.582;2023-11-19T07:27:11;100488.59;;;11.47;91.36
73457;BME280;61691;53.072;6.582;2023-11-19T07:29:39;100495.72;;;11.47;90.86
73457;BME280;61691;53.072;6.582;2023-11-19T07:32:06;100494.72;;;11.48;90.85
73457;BME280;61691;53.072;6.582;2023-11-19T07:34:32;100485.38;;;11.44;90.74
73457;BME280;61691;53.072;6.582;2023-11-19T07:36:59;100500.19;;;11.46;90.53
73457;BME280;61691;53.072;6.582;2023-11-19T07:39:29;100496.69;;;11.46;90.51
73457;BME280;61691;53.072;6.582;2023-11-19T07:41:56;100493.50;;;11.42;90.37
73457;BME280;61691;53.072;6.582;2023-11-19T07:44:23;100499.63;;;11.43;90.46
73457;BME280;61691;53.072;6.582;2023-11-19T07:46:49;100492.38;;;11.45;90.35
73457;BME280;61691;53.072;6.582;2023-11-19T07:49:17;100487.66;;;11.39;90.58
73457;BME280;61691;53.072;6.582;2023-11-19T07:51:44;100495.22;;;11.34;90.23
73457;BME280;61691;53.072;6.582;2023-11-19T07:54:10;100500.53;;;11.34;90.13
73457;BME280;61691;53.072;6.582;2023-11-19T07:56:37;100509.16;;;11.36;90.02
73457;BME280;61691;53.072;6.582;2023-11-19T07:59:04;100508.28;;;11.45;90.10
73457;BME280;61691;53.072;6.582;2023-11-19T08:01:31;100503.81;;;11.45;89.82
73457;BME280;61691;53.072;6.582;2023-11-19T08:03:57;100448.75;;;11.02;89.72
73457;BME280;61691;53.072;6.582;2023-11-19T08:06:26;100503.56;;;11.39;89.94
73457;BME280;61691;53.072;6.582;2023-11-19T08:08:52;100526.13;;;11.52;89.78
73457;BME280;61691;53.072;6.582;2023-11-19T08:11:19;100515.00;;;11.49;89.12
73457;BME280;61691;53.072;6.582;2023-11-19T08:13:47;100515.97;;;11.48;89.80
73457;BME280;61691;53.072;6.582;2023-11-19T08:16:14;100489.75;;;11.35;89.28
73457;BME280;61691;53.072;6.582;2023-11-19T08:18:43;100528.03;;;11.60;89.20
73457;BME280;61691;53.072;6.582;2023-11-19T08:21:10;100514.00;;;11.50;89.07
73457;BME280;61691;53.072;6.582;2023-11-19T08:23:37;100525.78;;;11.65;88.98
73457;BME280;61691;53.072;6.582;2023-11-19T08:26:05;100521.75;;;11.61;88.80
73457;BME280;61691;53.072;6.582;2023-11-19T08:28:33;100525.47;;;11.68;89.03
73457;BME280;61691;53.072;6.582;2023-11-19T08:31:01;100520.78;;;11.62;88.63
73457;BME280;61691;53.072;6.582;2023-11-19T08:33:31;100523.66;;;11.69;88.89
73457;BME280;61691;53.072;6.582;2023-11-19T08:35:57;100505.81;;;11.61;88.57
73457;BME280;61691;53.072;6.582;2023-11-19T08:38:25;100530.91;;;11.76;88.41
73457;BME280;61691;53.072;6.582;2023-11-19T08:40:55;100531.59;;;11.78;88.38
73457;BME280;61691;53.072;6.582;2023-11-19T08:43:27;100539.44;;;11.80;87.98
73457;BME280;61691;53.072;6.582;2023-11-19T08:45:53;100530.22;;;11.74;88.08
73457;BME280;61691;53.072;6.582;2023-11-19T08:48:20;100534.84;;;11.72;88.15
73457;BME280;61691;53.072;6.582;2023-11-19T08:50:47;100486.28;;;11.35;88.19
73457;BME280;61691;53.072;6.582;2023-11-19T08:53:14;100536.69;;;11.62;88.43
73457;BME280;61691;53.072;6.582;2023-11-19T08:55:41;100553.84;;;11.68;88.29
73457;BME280;61691;53.072;6.582;2023-11-19T08:58:08;100532.97;;;11.55;88.53
73457;BME280;61691;53.072;6.582;2023-11-19T09:00:35;100554.69;;;11.68;88.88
73457;BME280;61691;53.072;6.582;2023-11-19T09:03:02;100548.41;;;11.69;88.55
73457;BME280;61691;53.072;6.582;2023-11-19T09:05:30;100534.50;;;11.57;88.90
73457;BME280;61691;53.072;6.582;2023-11-19T09:07:56;100535.03;;;11.61;88.83
73457;BME280;61691;53.072;6.582;2023-11-19T09:10:23;100548.41;;;11.69;89.04
73457;BME280;61691;53.072;6.582;2023-11-19T09:12:50;100553.44;;;11.72;89.01
73457;BME280;61691;53.072;6.582;2023-11-19T09:15:16;100558.44;;;11.75;88.93
73457;BME280;61691;53.072;6.582;2023-11-19T09:17:43;100559.28;;;11.76;89.16
73457;BME280;61691;53.072;6.582;2023-11-19T09:20:12;100559.53;;;11.82;89.41
73457;BME280;61691;53.072;6.582;2023-11-19T09:22:42;100541.63;;;11.84;88.98
73457;BME280;61691;53.072;6.582;2023-11-19T09:25:09;100555.00;;;11.92;89.27
73457;BME280;61691;53.072;6.582;2023-11-19T09:27:36;100544.38;;;11.92;89.08
73457;BME280;61691;53.072;6.582;2023-11-19T09:30:03;100537.38;;;11.91;88.94
73457;BME280;61691;53.072;6.582;2023-11-19T09:32:30;100502.28;;;11.70;89.03
73457;BME280;61691;53.072;6.582;2023-11-19T09:34:57;100558.34;;;11.94;88.99
73457;BME280;61691;53.072;6.582;2023-11-19T09:37:24;100544.06;;;11.95;88.84
73457;BME280;61691;53.072;6.582;2023-11-19T09:39:51;100542.00;;;11.89;88.80
73457;BME280;61691;53.072;6.582;2023-11-19T09:42:20;100548.56;;;11.95;88.99
73457;BME280;61691;53.072;6.582;2023-11-19T09:44:47;100553.25;;;12.01;89.13
73457;BME280;61691;53.072;6.582;2023-11-19T09:47:16;100537.09;;;11.94;88.42
73457;BME280;61691;53.072;6.582;2023-11-19T09:49:43;100536.50;;;12.00;88.70
73457;BME280;61691;53.072;6.582;2023-11-19T09:52:10;100548.69;;;12.11;88.79
73457;BME280;61691;53.072;6.582;2023-11-19T09:54:37;100554.56;;;12.15;88.59
73457;BME280;61691;53.072;6.582;2023-11-19T09:57:06;100542.25;;;12.14;88.34
73457;BME280;61691;53.072;6.582;2023-11-19T09:59:36;100542.63;;;12.19;88.52
73457;BME280;61691;53.072;6.582;2023-11-19T10:02:06;100537.63;;;12.16;88.47
73457;BME280;61691;53.072;6.582;2023-11-19T10:04:35;100527.69;;;12.18;88.28
73457;BME280;61691;53.072;6.582;2023-11-19T10:07:04;100532.69;;;12.21;88.33
73457;BME280;61691;53.072;6.582;2023-11-19T10:09:31;100538.69;;;12.23;87.88
73457;BME280;61691;53.072;6.582;2023-11-19T10:11:57;100538.00;;;12.21;88.23
73457;BME280;61691;53.072;6.582;2023-11-19T10:14:24;100546.88;;;12.29;88.22
73457;BME280;61691;53.072;6.582;2023-11-19T10:16:52;100535.28;;;12.30;87.76
73457;BME280;61691;53.072;6.582;2023-11-19T10:19:19;100541.78;;;12.36;87.99
73457;BME280;61691;53.072;6.582;2023-11-19T10:21:47;100512.47;;;12.28;87.63
73457;BME280;61691;53.072;6.582;2023-11-19T10:24:14;100548.00;;;12.45;87.56
73457;BME280;61691;53.072;6.582;2023-11-19T10:26:56;100544.81;;;12.41;87.85
73457;BME280;61691;53.072;6.582;2023-11-19T10:29:24;100523.44;;;12.25;87.36
73457;BME280;61691;53.072;6.582;2023-11-19T10:31:56;100548.50;;;12.40;87.45
73457;BME280;61691;53.072;6.582;2023-11-19T10:34:27;100541.16;;;12.42;87.59
73457;BME280;61691;53.072;6.582;2023-11-19T10:36:54;100547.31;;;12.43;87.44
73457;BME280;61691;53.072;6.582;2023-11-19T10:39:21;100481.22;;;12.04;87.50
73457;BME280;61691;53.072;6.582;2023-11-19T10:41:47;100546.13;;;12.37;87.38
73457;BME280;61691;53.072;6.582;2023-11-19T10:44:33;100541.50;;;12.39;87.41
73457;BME280;61691;53.072;6.582;2023-11-19T10:47:05;100543.47;;;12.37;87.24
73457;BME280;61691;53.072;6.582;2023-11-19T10:49:32;100521.44;;;12.27;87.50
73457;BME280;61691;53.072;6.582;2023-11-19T10:52:02;100543.47;;;12.37;87.51
73457;BME280;61691;53.072;6.582;2023-11-19T10:54:30;100522.38;;;12.18;87.39
73457;BME280;61691;53.072;6.582;2023-11-19T10:56:59;100553.72;;;12.32;87.33
73457;BME280;61691;53.072;6.582;2023-11-19T10:59:30;100529.34;;;12.19;87.44
73457;BME280;61691;53.072;6.582;2023-11-19T11:02:03;100538.00;;;12.21;87.71
73457;BME280;61691;53.072;6.582;2023-11-19T11:04:33;100547.66;;;12.22;87.75
73457;BME280;61691;53.072;6.582;2023-11-19T11:07:07;100548.63;;;12.21;87.52
73457;BME280;61691;53.072;6.582;2023-11-19T11:09:34;100511.88;;;11.98;87.64
73457;BME280;61691;53.072;6.582;2023-11-19T11:12:02;100542.19;;;12.23;87.83
73457;BME280;61691;53.072;6.582;2023-11-19T11:14:30;100541.72;;;12.28;87.95
73457;BME280;61691;53.072;6.582;2023-11-19T11:16:57;100538.44;;;12.34;87.93
73457;BME280;61691;53.072;6.582;2023-11-19T11:19:24;100530.66;;;12.32;87.90
73457;BME280;61691;53.072;6.582;2023-11-19T11:21:53;100553.19;;;12.46;87.85
73457;BME280;61691;53.072;6.582;2023-11-19T11:24:44;100543.06;;;12.50;88.11
73457;BME280;61691;53.072;6.582;2023-11-19T11:32:51;100537.38;;;12.62;87.76
73457;BME280;61691;53.072;6.582;2023-11-19T11:35:30;100534.53;;;12.64;87.97
73457;BME280;61691;53.072;6.582;2023-11-19T11:38:06;100524.44;;;12.67;87.71
73457;BME280;61691;53.072;6.582;2023-11-19T11:40:34;100536.19;;;12.65;87.40
73457;BME280;61691;53.072;6.582;2023-11-19T11:43:01;100505.00;;;12.49;87.58
73457;BME280;61691;53.072;6.582;2023-11-19T11:45:36;100516.31;;;12.51;87.37
73457;BME280;61691;53.072;6.582;2023-11-19T11:48:09;100522.84;;;12.57;87.55
73457;BME280;61691;53.072;6.582;2023-11-19T11:50:51;100529.31;;;12.54;87.24
73457;BME280;61691;53.072;6.582;2023-11-19T11:53:23;100524.00;;;12.54;86.96
73457;BME280;61691;53.072;6.582;2023-11-19T11:58:30;100533.03;;;12.61;87.42
73457;BME280;61691;53.072;6.582;2023-11-19T12:00:59;100512.38;;;12.55;87.31
73457;BME280;61691;53.072;6.582;2023-11-19T12:03:28;100527.91;;;12.68;87.24
73457;BME280;61691;53.072;6.582;2023-11-19T12:05:56;100508.41;;;12.59;87.24
73457;BME280;61691;53.072;6.582;2023-11-19T12:08:26;100498.47;;;12.61;87.28
73457;BME280;61691;53.072;6.582;2023-11-19T12:10:57;100519.84;;;12.77;87.39
73457;BME280;61691;53.072;6.582;2023-11-19T12:13:42;100523.00;;;12.81;87.58
73457;BME280;61691;53.072;6.582;2023-11-19T12:16:10;100502.22;;;12.76;87.28
73457;BME280;61691;53.072;6.582;2023-11-19T12:18:39;100477.34;;;12.60;87.28
73457;BME280;61691;53.072;6.582;2023-11-19T12:21:06;100504.88;;;12.76;86.98
73457;BME280;61691;53.072;6.582;2023-11-19T12:23:44;100507.22;;;12.79;87.06
73457;BME280;61691;53.072;6.582;2023-11-19T12:26:21;100499.81;;;12.65;86.99
73457;BME280;61691;53.072;6.582;2023-11-19T12:28:58;100492.22;;;12.70;86.98
73457;BME280;61691;53.072;6.582;2023-11-19T12:31:25;100488.72;;;12.70;87.08
73457;BME280;61691;53.072;6.582;2023-11-19T12:33:52;100508.88;;;12.80;86.76
73457;BME280;61691;53.072;6.582;2023-11-19T12:36:20;100505.19;;;12.73;86.56
73457;BME280;61691;53.072;6.582;2023-11-19T12:38:47;100520.88;;;12.85;86.46
73457;BME280;61691;53.072;6.582;2023-11-19T12:41:13;100510.56;;;12.82;86.43
73457;BME280;61691;53.072;6.582;2023-11-19T12:43:44;100519.72;;;12.87;86.31
73457;BME280;61691;53.072;6.582;2023-11-19T12:46:21;100480.19;;;12.66;86.07
73457;BME280;61691;53.072;6.582;2023-11-19T12:48:49;100522.53;;;12.86;86.10
73457;BME280;61691;53.072;6.582;2023-11-19T12:51:17;100511.91;;;12.86;86.29
73457;BME280;61691;53.072;6.582;2023-11-19T12:53:51;100515.56;;;12.85;85.86
73457;BME280;61691;53.072;6.582;2023-11-19T12:56:22;100495.91;;;12.77;85.37
73457;BME280;61691;53.072;6.582;2023-11-19T12:58:49;100483.22;;;12.71;85.86
73457;BME280;61691;53.072;6.582;2023-11-19T13:01:18;100502.09;;;12.86;85.82
73457;BME280;61691;53.072;6.582;2023-11-19T13:03:46;100505.28;;;12.90;85.08
73457;BME280;61691;53.072;6.582;2023-11-19T13:06:15;100509.63;;;12.91;84.67
73457;BME280;61691;53.072;6.582;2023-11-19T13:08:43;100510.94;;;12.95;85.06